sensor_id;sensor_type;location;lat;lon;timestamp;P1;durP1;ratioP1;P2;durP2;ratioP2
13319;SDS011;59599;47.608;12.190;2023-11-21T05:01:12;6.83;;;5.70;;
13319;SDS011;59599;47.608;12.190;2023-11-21T05:03:38;6.97;;;5.53;;
13319;SDS011;59599;47.608;12.190;2023-11-21T05:06:04;7.53;;;5.27;;
13319;SDS011;59599;47.608;12.190;2023-11-21T05:08:30;8.77;;;5.53;;
13319;SDS011;59599;47.608;12.190;2023-11-21T05:10:56;7.30;;;5.40;;
13319;SDS011;59599;47.608;12.190;2023-11-21T05:13:22;8.67;;;5.80;;
13319;SDS011;59599;47.608;12.190;2023-11-21T05:15:52;6.90;;;5.30;;
13319;SDS011;59599;47.608;12.190;2023-11-21T05:18:18;7.27;;;5.47;;
13319;SDS011;59599;47.608;12.190;2023-11-21T05:20:44;7.73;;;6.57;;
13319;SDS011;59599;47.608;12.190;2023-11-21T05:23:10;6.67;;;5.03;;
13319;SDS011;59599;47.608;12.190;2023-11-21T05:25:35;5.83;;;5.07;;
13319;SDS011;59599;47.608;12.190;2023-11-21T05:28:01;8.03;;;5.63;;
13319;SDS011;59599;47.608;12.190;2023-11-21T05:30:28;8.83;;;5.03;;
13319;SDS011;59599;47.608;12.190;2023-11-21T05:32:54;6.10;;;4.97;;
13319;SDS011;59599;47.608;12.190;2023-11-21T05:35:20;5.10;;;4.60;;
13319;SDS011;59599;47.608;12.190;2023-11-21T05:37:46;6.00;;;4.70;;
13319;SDS011;59599;47.608;12.190;2023-11-21T05:40:13;7.07;;;5.20;;
13319;SDS011;59599;47.608;12.190;2023-11-21T05:42:39;5.80;;;4.40;;
13319;SDS011;59599;47.608;12.190;2023-11-21T05:45:06;10.53;;;5.50;;
13319;SDS011;59599;47.608;12.190;2023-11-21T05:47:39;8.63;;;5.80;;
13319;SDS011;59599;47.608;12.190;2023-11-21T05:50:05;7.03;;;5.43;;
13319;SDS011;59599;47.608;12.190;2023-11-21T05:52:34;9.77;;;6.00;;
13319;SDS011;59599;47.608;12.190;2023-11-21T05:55:00;10.67;;;5.67;;
13319;SDS011;59599;47.608;12.190;2023-11-21T05:57:26;10.73;;;6.27;;
13319;SDS011;59599;47.608;12.190;2023-11-21T05:59:52;7.67;;;5.80;;
13319;SDS011;59599;47.608;12.190;2023-11-21T06:02:18;8.77;;;5.63;;
13319;SDS011;59599;47.608;12.190;2023-11-21T06:04:45;8.40;;;5.90;;
13319;SDS011;59599;47.608;12.190;2023-11-21T06:07:11;8.60;;;5.47;;
13319;SDS011;59599;47.608;12.190;2023-11-21T06:09:37;7.17;;;5.07;;
13319;SDS011;59599;47.608;12.190;2023-11-21T06:12:03;10.63;;;5.17;;
13319;SDS011;59599;47.608;12.190;2023-11-21T06:14:30;6.23;;;4.77;;
13319;SDS011;59599;47.608;12.190;2023-11-21T06:16:58;9.70;;;5.00;;
13319;SDS011;59599;47.608;12.190;2023-11-21T06:19:24;5.57;;;4.40;;
13319;SDS011;59599;47.608;12.190;2023-11-21T06:21:50;9.43;;;4.77;;
13319;SDS011;59599;47.608;12.190;2023-11-21T06:24:16;11.00;;;4.97;;
13319;SDS011;59599;47.608;12.190;2023-11-21T06:26:42;7.87;;;4.80;;
13319;SDS011;59599;47.608;12.190;2023-11-21T06:29:09;6.57;;;5.00;;
13319;SDS011;59599;47.608;12.190;2023-11-21T06:31:36;9.00;;;5.60;;
13319;SDS011;59599;47.608;12.190;2023-11-21T06:34:02;6.77;;;5.37;;
13319;SDS011;59599;47.608;12.190;2023-11-21T06:36:28;7.43;;;5.37;;
13319;SDS011;59599;47.608;12.190;2023-11-21T06:38:54;7.77;;;6.17;;
13319;SDS011;59599;47.608;12.190;2023-11-21T06:41:20;7.63;;;6.23;;
13319;SDS011;59599;47.608;12.190;2023-11-21T06:43:46;9.87;;;5.70;;
13319;SDS011;59599;47.608;12.190;2023-11-21T06:46:12;8.87;;;6.23;;
13319;SDS011;59599;47.608;12.190;2023-11-21T06:48:40;10.23;;;6.03;;
13319;SDS011;59599;47.608;12.190;2023-11-21T06:51:09;9.73;;;7.17;;
13319;SDS011;59599;47.608;12.190;2023-11-21T06:53:35;11.67;;;7.80;;
13319;SDS011;59599;47.608;12.190;2023-11-21T06:56:01;7.97;;;6.90;;
13319;SDS011;59599;47.608;12.190;2023-11-21T06:58:27;9.97;;;7.43;;
13319;SDS011;59599;47.608;12.190;2023-11-21T07:00:53;8.53;;;7.07;;
13319;SDS011;59599;47.608;12.190;2023-11-21T07:03:19;10.47;;;6.87;;
13319;SDS011;59599;47.608;12.190;2023-11-21T07:05:45;10.53;;;7.37;;
13319;SDS011;59599;47.608;12.190;2023-11-21T07:08:11;9.40;;;6.87;;
13319;SDS011;59599;47.608;12.190;2023-11-21T07:10:37;12.37;;;5.97;;
13319;SDS011;59599;47.608;12.190;2023-11-21T07:13:03;8.80;;;5.63;;
13319;SDS011;59599;47.608;12.190;2023-11-21T07:15:29;10.00;;;5.60;;
13319;SDS011;59599;47.608;12.190;2023-11-21T07:17:55;8.87;;;5.90;;
13319;SDS011;59599;47.608;12.190;2023-11-21T07:20:22;10.07;;;5.03;;
13319;SDS011;59599;47.608;12.190;2023-11-21T07:22:48;7.10;;;4.83;;
13319;SDS011;59599;47.608;12.190;2023-11-21T07:25:14;8.00;;;5.00;;
13319;SDS011;59599;47.608;12.190;2023-11-21T07:27:41;11.43;;;5.37;;
13319;SDS011;59599;47.608;12.190;2023-11-21T07:30:07;9.07;;;5.73;;
13319;SDS011;59599;47.608;12.190;2023-11-21T07:32:34;12.33;;;5.37;;
13319;SDS011;59599;47.608;12.190;2023-11-21T07:35:00;6.43;;;4.83;;
13319;SDS011;59599;47.608;12.190;2023-11-21T07:37:26;8.20;;;4.70;;
13319;SDS011;59599;47.608;12.190;2023-11-21T07:39:55;8.30;;;4.83;;
13319;SDS011;59599;47.608;12.190;2023-11-21T07:42:22;7.30;;;5.00;;
13319;SDS011;59599;47.608;12.190;2023-11-21T07:44:49;7.47;;;4.27;;
13319;SDS011;59599;47.608;12.190;2023-11-21T07:47:15;5.23;;;4.00;;
13319;SDS011;59599;47.608;12.190;2023-11-21T07:49:41;6.03;;;4.33;;
13319;SDS011;59599;47.608;12.190;2023-11-21T07:52:08;7.40;;;4.67;;
13319;SDS011;59599;47.608;12.190;2023-11-21T07:54:34;6.40;;;4.37;;
13319;SDS011;59599;47.608;12.190;2023-11-21T07:57:00;4.37;;;3.73;;
13319;SDS011;59599;47.608;12.190;2023-11-21T07:59:27;5.97;;;4.57;;
13319;SDS011;59599;47.608;12.190;2023-11-21T08:01:53;6.03;;;4.33;;
13319;SDS011;59599;47.608;12.190;2023-11-21T08:04:19;5.63;;;3.93;;
13319;SDS011;59599;47.608;12.190;2023-11-21T08:06:45;6.73;;;4.50;;
13319;SDS011;59599;47.608;12.190;2023-11-21T08:09:11;4.93;;;4.10;;
13319;SDS011;59599;47.608;12.190;2023-11-21T08:11:37;4.23;;;3.30;;
13319;SDS011;59599;47.608;12.190;2023-11-21T08:14:03;6.57;;;4.83;;
13319;SDS011;59599;47.608;12.190;2023-11-21T08:16:29;11.47;;;7.30;;
13319;SDS011;59599;47.608;12.190;2023-11-21T08:18:55;8.33;;;5.63;;
13319;SDS011;59599;47.608;12.190;2023-11-21T08:21:22;8.80;;;4.63;;
13319;SDS011;59599;47.608;12.190;2023-11-21T08:23:53;8.00;;;5.27;;
13319;SDS011;59599;47.608;12.190;2023-11-21T08:26:22;6.40;;;4.93;;
13319;SDS011;59599;47.608;12.190;2023-11-21T08:28:49;7.07;;;4.87;;
13319;SDS011;59599;47.608;12.190;2023-11-21T08:31:17;6.77;;;4.77;;
13319;SDS011;59599;47.608;12.190;2023-11-21T08:33:43;7.73;;;4.97;;
13319;SDS011;59599;47.608;12.190;2023-11-21T08:36:09;10.27;;;5.10;;
13319;SDS011;59599;47.608;12.190;2023-11-21T08:38:37;6.63;;;5.10;;
13319;SDS011;59599;47.608;12.190;2023-11-21T08:41:04;6.17;;;4.70;;
13319;SDS011;59599;47.608;12.190;2023-11-21T08:43:33;6.20;;;4.97;;
13319;SDS011;59599;47.608;12.190;2023-11-21T08:45:59;6.27;;;4.50;;
13319;SDS011;59599;47.608;12.190;2023-11-21T08:48:25;6.87;;;4.47;;
13319;SDS011;59599;47.608;12.190;2023-11-21T08:50:53;7.30;;;4.70;;
13319;SDS011;59599;47.608;12.190;2023-11-21T08:53:19;7.67;;;4.30;;
13319;SDS011;59599;47.608;12.190;2023-11-21T08:55:46;6.83;;;4.70;;
13319;SDS011;59599;47.608;12.190;2023-11-21T08:58:13;5.33;;;4.17;;
13319;SDS011;59599;47.608;12.190;2023-11-21T09:00:39;8.10;;;5.23;;
13319;SDS011;59599;47.608;12.190;2023-11-21T09:03:05;6.47;;;4.67;;
13319;SDS011;59599;47.608;12.190;2023-11-21T09:05:33;6.43;;;4.50;;
13319;SDS011;59599;47.608;12.190;2023-11-21T09:07:59;6.80;;;4.27;;
13319;SDS011;59599;47.608;12.190;2023-11-21T09:10:25;7.77;;;4.47;;
13319;SDS011;59599;47.608;12.190;2023-11-21T09:12:53;7.97;;;4.50;;
13319;SDS011;59599;47.608;12.190;2023-11-21T09:15:19;4.43;;;3.93;;
13319;SDS011;59599;47.608;12.190;2023-11-21T09:17:45;5.17;;;4.30;;
13319;SDS011;59599;47.608;12.190;2023-11-21T09:20:11;5.27;;;4.60;;
13319;SDS011;59599;47.608;12.190;2023-11-21T09:22:39;12.50;;;4.90;;
13319;SDS011;59599;47.608;12.190;2023-11-21T09:25:06;6.07;;;4.17;;
13319;SDS011;59599;47.608;12.190;2023-11-21T09:27:33;6.30;;;4.97;;
13319;SDS011;59599;47.608;12.190;2023-11-21T09:30:00;6.60;;;4.80;;
13319;SDS011;59599;47.608;12.190;2023-11-21T09:32:26;6.67;;;4.73;;
13319;SDS011;59599;47.608;12.190;2023-11-21T09:34:52;5.30;;;4.63;;
13319;SDS011;59599;47.608;12.190;2023-11-21T09:37:20;8.90;;;4.97;;
13319;SDS011;59599;47.608;12.190;2023-11-21T09:39:46;6.47;;;4.90;;
13319;SDS011;59599;47.608;12.190;2023-11-21T09:45:05;7.53;;;4.83;;
13319;SDS011;59599;47.608;12.190;2023-11-21T09:47:37;8.07;;;4.57;;
13319;SDS011;59599;47.608;12.190;2023-11-21T09:50:04;7.50;;;5.17;;
13319;SDS011;59599;47.608;12.190;2023-11-21T09:52:32;7.50;;;5.53;;
13319;SDS011;59599;47.608;12.190;2023-11-21T09:55:04;6.30;;;4.70;;
13319;SDS011;59599;47.608;12.190;2023-11-21T09:57:30;8.17;;;5.13;;
13319;SDS011;59599;47.608;12.190;2023-11-21T09:59:56;7.13;;;5.20;;
13319;SDS011;59599;47.608;12.190;2023-11-21T10:02:26;8.47;;;5.50;;
13319;SDS011;59599;47.608;12.190;2023-11-21T10:04:54;7.53;;;5.60;;
13319;SDS011;59599;47.608;12.190;2023-11-21T10:07:21;10.00;;;5.90;;
13319;SDS011;59599;47.608;12.190;2023-11-21T10:09:48;8.83;;;5.70;;
13319;SDS011;59599;47.608;12.190;2023-11-21T10:12:16;8.07;;;4.87;;
13319;SDS011;59599;47.608;12.190;2023-11-21T10:14:43;9.30;;;5.00;;
13319;SDS011;59599;47.608;12.190;2023-11-21T10:17:12;7.63;;;4.50;;
13319;SDS011;59599;47.608;12.190;2023-11-21T10:19:39;5.07;;;4.47;;
13319;SDS011;59599;47.608;12.190;2023-11-21T10:22:05;6.90;;;4.30;;
13319;SDS011;59599;47.608;12.190;2023-11-21T10:24:34;6.87;;;5.33;;
13319;SDS011;59599;47.608;12.190;2023-11-21T10:27:01;7.67;;;6.20;;
13319;SDS011;59599;47.608;12.190;2023-11-21T10:29:31;7.93;;;5.93;;
13319;SDS011;59599;47.608;12.190;2023-11-21T10:32:00;11.07;;;5.83;;
13319;SDS011;59599;47.608;12.190;2023-11-21T10:34:27;8.40;;;6.40;;
13319;SDS011;59599;47.608;12.190;2023-11-21T10:36:53;7.80;;;5.33;;
13319;SDS011;59599;47.608;12.190;2023-11-21T10:39:22;10.33;;;5.90;;
13319;SDS011;59599;47.608;12.190;2023-11-21T10:41:52;8.10;;;5.73;;
13319;SDS011;59599;47.608;12.190;2023-11-21T10:44:19;9.47;;;6.10;;
13319;SDS011;59599;47.608;12.190;2023-11-21T10:46:55;7.13;;;5.57;;
13319;SDS011;59599;47.608;12.190;2023-11-21T10:49:25;7.33;;;4.90;;
13319;SDS011;59599;47.608;12.190;2023-11-21T10:51:55;11.80;;;5.57;;
13319;SDS011;59599;47.608;12.190;2023-11-21T10:54:21;11.70;;;5.77;;
13319;SDS011;59599;47.608;12.190;2023-11-21T10:56:50;9.43;;;5.63;;
13319;SDS011;59599;47.608;12.190;2023-11-21T10:59:18;10.00;;;6.10;;
13319;SDS011;59599;47.608;12.190;2023-11-21T11:01:46;6.27;;;4.97;;
13319;SDS011;59599;47.608;12.190;2023-11-21T11:04:14;7.83;;;4.77;;
13319;SDS011;59599;47.608;12.190;2023-11-21T11:06:44;10.73;;;4.57;;
13319;SDS011;59599;47.608;12.190;2023-11-21T11:09:12;9.17;;;5.07;;
13319;SDS011;59599;47.608;12.190;2023-11-21T11:11:39;8.80;;;5.07;;
13319;SDS011;59599;47.608;12.190;2023-11-21T11:14:11;9.23;;;6.00;;
13319;SDS011;59599;47.608;12.190;2023-11-21T11:16:38;8.53;;;5.47;;
13319;SDS011;59599;47.608;12.190;2023-11-21T11:19:06;5.50;;;4.87;;
13319;SDS011;59599;47.608;12.190;2023-11-21T11:21:37;6.73;;;4.17;;
13319;SDS011;59599;47.608;12.190;2023-11-21T11:24:13;2.20;;;2.00;;
13319;SDS011;59599;47.608;12.190;2023-11-21T11:32:13;0.83;;;0.80;;
13319;SDS011;59599;47.608;12.190;2023-11-21T11:34:42;1.30;;;1.20;;
13319;SDS011;59599;47.608;12.190;2023-11-21T11:37:12;4.67;;;1.17;;
13319;SDS011;59599;47.608;12.190;2023-11-21T11:39:39;1.20;;;1.10;;
13319;SDS011;59599;47.608;12.190;2023-11-21T11:42:07;1.97;;;1.60;;
13319;SDS011;59599;47.608;12.190;2023-11-21T11:47:30;2.20;;;1.50;;
13319;SDS011;59599;47.608;12.190;2023-11-21T11:52:55;1.10;;;0.90;;
13319;SDS011;59599;47.608;12.190;2023-11-21T11:55:36;1.20;;;0.63;;
13319;SDS011;59599;47.608;12.190;2023-11-21T11:58:04;2.23;;;1.00;;
13319;SDS011;59599;47.608;12.190;2023-11-21T12:00:34;1.33;;;0.80;;
13319;SDS011;59599;47.608;12.190;2023-11-21T12:03:05;1.50;;;0.73;;
13319;SDS011;59599;47.608;12.190;2023-11-21T12:05:32;0.70;;;0.60;;
13319;SDS011;59599;47.608;12.190;2023-11-21T12:08:04;0.50;;;0.50;;
13319;SDS011;59599;47.608;12.190;2023-11-21T12:10:32;1.70;;;0.90;;
13319;SDS011;59599;47.608;12.190;2023-11-21T12:13:04;1.63;;;1.40;;
13319;SDS011;59599;47.608;12.190;2023-11-21T12:15:32;1.13;;;0.97;;
13319;SDS011;59599;47.608;12.190;2023-11-21T12:17:58;1.80;;;1.30;;
13319;SDS011;59599;47.608;12.190;2023-11-21T12:20:24;2.00;;;1.43;;
13319;SDS011;59599;47.608;12.190;2023-11-21T12:22:54;4.10;;;1.17;;
13319;SDS011;59599;47.608;12.190;2023-11-21T12:27:47;2.50;;;0.77;;
13319;SDS011;59599;47.608;12.190;2023-11-21T12:30:17;2.33;;;0.97;;
13319;SDS011;59599;47.608;12.190;2023-11-21T12:32:44;2.67;;;1.30;;
13319;SDS011;59599;47.608;12.190;2023-11-21T12:35:13;2.60;;;1.20;;
13319;SDS011;59599;47.608;12.190;2023-11-21T12:37:40;0.67;;;0.60;;
13319;SDS011;59599;47.608;12.190;2023-11-21T12:40:09;0.90;;;0.60;;
13319;SDS011;59599;47.608;12.190;2023-11-21T12:42:42;1.80;;;0.60;;
13319;SDS011;59599;47.608;12.190;2023-11-21T12:47:45;0.67;;;0.67;;
13319;SDS011;59599;47.608;12.190;2023-11-21T12:50:11;1.07;;;0.70;;
13319;SDS011;59599;47.608;12.190;2023-11-21T12:52:44;1.13;;;0.50;;
13319;SDS011;59599;47.608;12.190;2023-11-21T12:55:17;4.00;;;0.60;;
13319;SDS011;59599;47.608;12.190;2023-11-21T12:57:43;1.43;;;0.87;;
13319;SDS011;59599;47.608;12.190;2023-11-21T13:00:10;1.47;;;0.90;;
13319;SDS011;59599;47.608;12.190;2023-11-21T13:02:42;1.47;;;0.87;;
13319;SDS011;59599;47.608;12.190;2023-11-21T13:05:09;1.17;;;0.90;;
13319;SDS011;59599;47.608;12.190;2023-11-21T13:07:46;1.63;;;1.00;;
13319;SDS011;59599;47.608;12.190;2023-11-21T13:10:12;1.90;;;1.20;;
13319;SDS011;59599;47.608;12.190;2023-11-21T13:12:47;2.10;;;1.37;;
13319;SDS011;59599;47.608;12.190;2023-11-21T13:15:16;2.45;;;1.33;;
13319;SDS011;59599;47.608;12.190;2023-11-21T13:17:42;2.20;;;1.10;;
13319;SDS011;59599;47.608;12.190;2023-11-21T13:20:11;1.83;;;1.20;;
13319;SDS011;59599;47.608;12.190;2023-11-21T13:22:49;5.03;;;1.50;;
13319;SDS011;59599;47.608;12.190;2023-11-21T13:25:16;1.87;;;0.93;;
13319;SDS011;59599;47.608;12.190;2023-11-21T13:27:43;2.27;;;1.10;;
13319;SDS011;59599;47.608;12.190;2023-11-21T13:30:10;3.03;;;1.50;;
13319;SDS011;59599;47.608;12.190;2023-11-21T13:32:36;4.10;;;2.17;;
13319;SDS011;59599;47.608;12.190;2023-11-21T13:35:02;7.60;;;3.10;;
13319;SDS011;59599;47.608;12.190;2023-11-21T13:37:33;5.23;;;2.87;;
13319;SDS011;59599;47.608;12.190;2023-11-21T13:39:59;3.40;;;2.00;;
13319;SDS011;59599;47.608;12.190;2023-11-21T13:42:28;3.80;;;2.30;;
13319;SDS011;59599;47.608;12.190;2023-11-21T13:44:58;4.00;;;1.90;;
13319;SDS011;59599;47.608;12.190;2023-11-21T13:47:23;3.17;;;1.40;;
13319;SDS011;59599;47.608;12.190;2023-11-21T13:49:54;2.17;;;1.73;;
13319;SDS011;59599;47.608;12.190;2023-11-21T13:52:20;2.30;;;1.57;;
13319;SDS011;59599;47.608;12.190;2023-11-21T13:54:48;6.10;;;1.83;;
13319;SDS011;59599;47.608;12.190;2023-11-21T13:57:14;2.70;;;2.07;;
13319;SDS011;59599;47.608;12.190;2023-11-21T13:59:39;2.57;;;1.60;;
13319;SDS011;59599;47.608;12.190;2023-11-21T14:02:05;2.90;;;1.70;;
13319;SDS011;59599;47.608;12.190;2023-11-21T14:04:44;4.67;;;2.50;;
13319;SDS011;59599;47.608;12.190;2023-11-21T14:07:20;6.63;;;2.53;;
13319;SDS011;59599;47.608;12.190;2023-11-21T14:10:00;4.23;;;2.60;;
13319;SDS011;59599;47.608;12.190;2023-11-21T14:12:26;4.57;;;2.40;;
13319;SDS011;59599;47.608;12.190;2023-11-21T14:14:53;3.27;;;2.27;;
13319;SDS011;59599;47.608;12.190;2023-11-21T14:17:20;4.43;;;2.30;;
13319;SDS011;59599;47.608;12.190;2023-11-21T14:19:47;2.27;;;1.70;;
13319;SDS011;59599;47.608;12.190;2023-11-21T14:22:14;2.43;;;1.70;;
13319;SDS011;59599;47.608;12.190;2023-11-21T14:24:39;1.83;;;1.50;;
13319;SDS011;59599;47.608;12.190;2023-11-21T14:27:12;2.40;;;1.60;;
13319;SDS011;59599;47.608;12.190;2023-11-21T14:29:39;2.73;;;1.43;;
13319;SDS011;59599;47.608;12.190;2023-11-21T14:32:08;3.33;;;1.60;;
13319;SDS011;59599;47.608;12.190;2023-11-21T14:34:34;2.33;;;1.50;;
13319;SDS011;59599;47.608;12.190;2023-11-21T14:37:00;2.47;;;1.87;;
13319;SDS011;59599;47.608;12.190;2023-11-21T14:39:28;5.10;;;2.27;;
13319;SDS011;59599;47.608;12.190;2023-11-21T14:41:55;3.73;;;2.50;;
13319;SDS011;59599;47.608;12.190;2023-11-21T14:44:23;4.23;;;2.70;;
13319;SDS011;59599;47.608;12.190;2023-11-21T14:46:51;3.33;;;1.80;;
13319;SDS011;59599;47.608;12.190;2023-11-21T14:49:19;2.67;;;2.23;;
13319;SDS011;59599;47.608;12.190;2023-11-21T14:51:55;3.63;;;2.23;;
13319;SDS011;59599;47.608;12.190;2023-11-21T14:54:20;4.07;;;2.60;;
13319;SDS011;59599;47.608;12.190;2023-11-21T14:57:03;2.93;;;1.80;;
13319;SDS011;59599;47.608;12.190;2023-11-21T14:59:34;1.40;;;1.30;;
13319;SDS011;59599;47.608;12.190;2023-11-21T15:02:00;6.77;;;4.60;;
13319;SDS011;59599;47.608;12.190;2023-11-21T15:04:39;6.50;;;4.43;;
13319;SDS011;59599;47.608;12.190;2023-11-21T15:07:07;3.83;;;2.90;;
13319;SDS011;59599;47.608;12.190;2023-11-21T15:09:33;3.33;;;2.13;;
13319;SDS011;59599;47.608;12.190;2023-11-21T15:11:59;3.17;;;2.13;;
13319;SDS011;59599;47.608;12.190;2023-11-21T15:14:52;3.90;;;2.50;;
13319;SDS011;59599;47.608;12.190;2023-11-21T15:17:20;5.43;;;3.63;;
13319;SDS011;59599;47.608;12.190;2023-11-21T15:19:51;5.93;;;3.53;;
13319;SDS011;59599;47.608;12.190;2023-11-21T15:22:18;3.87;;;2.20;;
13319;SDS011;59599;47.608;12.190;2023-11-21T15:24:44;3.50;;;2.20;;
13319;SDS011;59599;47.608;12.190;2023-11-21T15:27:12;4.37;;;2.20;;
13319;SDS011;59599;47.608;12.190;2023-11-21T15:29:38;4.07;;;2.80;;
13319;SDS011;59599;47.608;12.190;2023-11-21T15:32:05;6.93;;;2.70;;
13319;SDS011;59599;47.608;12.190;2023-11-21T15:34:32;3.53;;;2.90;;
13319;SDS011;59599;47.608;12.190;2023-11-21T15:36:58;5.43;;;4.00;;
13319;SDS011;59599;47.608;12.190;2023-11-21T15:39:23;3.00;;;1.93;;
13319;SDS011;59599;47.608;12.190;2023-11-21T15:41:54;2.50;;;1.70;;
13319;SDS011;59599;47.608;12.190;2023-11-21T15:44:19;2.20;;;1.70;;
13319;SDS011;59599;47.608;12.190;2023-11-21T15:46:45;2.50;;;1.73;;
13319;SDS011;59599;47.608;12.190;2023-11-21T15:49:12;3.97;;;1.60;;
13319;SDS011;59599;47.608;12.190;2023-11-21T15:51:44;3.23;;;1.93;;
13319;SDS011;59599;47.608;12.190;2023-11-21T15:54:12;3.23;;;2.63;;
13319;SDS011;59599;47.608;12.190;2023-11-21T15:56:38;5.30;;;3.47;;
13319;SDS011;59599;47.608;12.190;2023-11-21T15:59:04;5.33;;;3.20;;
13319;SDS011;59599;47.608;12.190;2023-11-21T16:01:30;7.13;;;3.77;;
13319;SDS011;59599;47.608;12.190;2023-11-21T16:03:56;7.63;;;3.40;;
13319;SDS011;59599;47.608;12.190;2023-11-21T16:06:25;5.03;;;2.83;;
13319;SDS011;59599;47.608;12.190;2023-11-21T16:08:52;3.60;;;2.40;;
13319;SDS011;59599;47.608;12.190;2023-11-21T16:11:18;4.30;;;2.30;;
13319;SDS011;59599;47.608;12.190;2023-11-21T16:13:44;3.80;;;2.77;;
13319;SDS011;59599;47.608;12.190;2023-11-21T16:16:11;2.57;;;1.40;;
13319;SDS011;59599;47.608;12.190;2023-11-21T16:18:37;1.60;;;1.03;;
13319;SDS011;59599;47.608;12.190;2023-11-21T16:21:02;2.53;;;1.27;;
13319;SDS011;59599;47.608;12.190;2023-11-21T16:23:28;1.80;;;1.07;;
13319;SDS011;59599;47.608;12.190;2023-11-21T16:25:56;2.07;;;1.50;;
13319;SDS011;59599;47.608;12.190;2023-11-21T16:28:22;2.00;;;1.50;;
13319;SDS011;59599;47.608;12.190;2023-11-21T16:30:50;2.03;;;1.47;;
13319;SDS011;59599;47.608;12.190;2023-11-21T16:33:16;2.40;;;1.40;;
13319;SDS011;59599;47.608;12.190;2023-11-21T16:35:42;3.00;;;1.87;;
13319;SDS011;59599;47.608;12.190;2023-11-21T16:38:08;2.10;;;1.40;;
13319;SDS011;59599;47.608;12.190;2023-11-21T16:40:34;2.60;;;2.07;;
13319;SDS011;59599;47.608;12.190;2023-11-21T16:43:00;3.20;;;2.00;;
13319;SDS011;59599;47.608;12.190;2023-11-21T16:45:27;4.07;;;2.37;;
13319;SDS011;59599;47.608;12.190;2023-11-21T16:47:53;2.30;;;1.63;;
13319;SDS011;59599;47.608;12.190;2023-11-21T16:50:18;4.20;;;2.83;;
13319;SDS011;59599;47.608;12.190;2023-11-21T16:52:46;4.87;;;4.07;;
13319;SDS011;59599;47.608;12.190;2023-11-21T16:55:11;4.00;;;3.60;;
13319;SDS011;59599;47.608;12.190;2023-11-21T16:57:38;5.10;;;3.70;;
13319;SDS011;59599;47.608;12.190;2023-11-21T17:00:04;3.80;;;2.97;;
13319;SDS011;59599;47.608;12.190;2023-11-21T17:02:36;4.00;;;3.50;;
13319;SDS011;59599;47.608;12.190;2023-11-21T17:05:03;4.90;;;3.80;;
13319;SDS011;59599;47.608;12.190;2023-11-21T17:07:30;4.73;;;3.70;;
13319;SDS011;59599;47.608;12.190;2023-11-21T17:09:57;4.33;;;2.90;;
13319;SDS011;59599;47.608;12.190;2023-11-21T17:12:23;4.50;;;3.33;;
13319;SDS011;59599;47.608;12.190;2023-11-21T17:14:49;3.97;;;2.80;;
13319;SDS011;59599;47.608;12.190;2023-11-21T17:17:15;4.87;;;3.67;;
13319;SDS011;59599;47.608;12.190;2023-11-21T17:19:41;4.97;;;3.70;;
13319;SDS011;59599;47.608;12.190;2023-11-21T17:22:08;4.30;;;3.70;;
13319;SDS011;59599;47.608;12.190;2023-11-21T17:24:33;4.40;;;2.87;;
13319;SDS011;59599;47.608;12.190;2023-11-21T17:27:01;3.30;;;2.80;;
13319;SDS011;59599;47.608;12.190;2023-11-21T17:29:27;3.13;;;2.23;;
13319;SDS011;59599;47.608;12.190;2023-11-21T17:31:53;4.07;;;3.10;;
13319;SDS011;59599;47.608;12.190;2023-11-21T17:34:19;6.50;;;3.43;;
13319;SDS011;59599;47.608;12.190;2023-11-21T17:36:45;11.80;;;8.00;;
13319;SDS011;59599;47.608;12.190;2023-11-21T17:39:11;20.57;;;14.27;;
13319;SDS011;59599;47.608;12.190;2023-11-21T17:41:38;22.87;;;13.37;;
13319;SDS011;59599;47.608;12.190;2023-11-21T17:44:03;8.37;;;5.80;;
13319;SDS011;59599;47.608;12.190;2023-11-21T17:46:30;6.83;;;5.00;;
13319;SDS011;59599;47.608;12.190;2023-11-21T17:48:56;3.57;;;2.60;;
13319;SDS011;59599;47.608;12.190;2023-11-21T17:51:22;2.43;;;2.20;;
13319;SDS011;59599;47.608;12.190;2023-11-21T17:53:48;4.20;;;3.20;;
13319;SDS011;59599;47.608;12.190;2023-11-21T17:56:15;3.67;;;3.20;;
13319;SDS011;59599;47.608;12.190;2023-11-21T17:58:44;3.00;;;2.50;;
13319;SDS011;59599;47.608;12.190;2023-11-21T18:01:10;2.77;;;1.73;;
13319;SDS011;59599;47.608;12.190;2023-11-21T18:03:36;3.07;;;2.10;;
13319;SDS011;59599;47.608;12.190;2023-11-21T18:06:05;3.60;;;2.63;;
13319;SDS011;59599;47.608;12.190;2023-11-21T18:08:31;3.87;;;3.10;;
13319;SDS011;59599;47.608;12.190;2023-11-21T18:10:57;9.03;;;3.23;;
13319;SDS011;59599;47.608;12.190;2023-11-21T18:13:24;7.37;;;4.13;;
13319;SDS011;59599;47.608;12.190;2023-11-21T18:15:50;6.13;;;4.27;;
13319;SDS011;59599;47.608;12.190;2023-11-21T18:18:16;5.23;;;3.90;;
13319;SDS011;59599;47.608;12.190;2023-11-21T18:20:42;4.90;;;3.60;;
13319;SDS011;59599;47.608;12.190;2023-11-21T18:23:08;5.27;;;3.50;;
13319;SDS011;59599;47.608;12.190;2023-11-21T18:25:34;5.60;;;3.90;;
13319;SDS011;59599;47.608;12.190;2023-11-21T18:28:00;3.90;;;3.03;;
13319;SDS011;59599;47.608;12.190;2023-11-21T18:30:26;5.20;;;4.03;;
13319;SDS011;59599;47.608;12.190;2023-11-21T18:32:52;5.73;;;3.97;;
13319;SDS011;59599;47.608;12.190;2023-11-21T18:35:18;7.53;;;4.70;;
13319;SDS011;59599;47.608;12.190;2023-11-21T18:37:45;7.77;;;4.33;;
13319;SDS011;59599;47.608;12.190;2023-11-21T18:40:12;5.63;;;3.77;;
13319;SDS011;59599;47.608;12.190;2023-11-21T18:42:40;6.20;;;4.30;;
13319;SDS011;59599;47.608;12.190;2023-11-21T18:45:08;5.20;;;3.50;;
13319;SDS011;59599;47.608;12.190;2023-11-21T18:47:35;4.60;;;3.27;;
13319;SDS011;59599;47.608;12.190;2023-11-21T18:50:00;7.50;;;5.87;;
13319;SDS011;59599;47.608;12.190;2023-11-21T18:52:27;11.33;;;7.33;;
13319;SDS011;59599;47.608;12.190;2023-11-21T18:54:53;14.60;;;11.30;;
13319;SDS011;59599;47.608;12.190;2023-11-21T18:57:18;13.80;;;10.20;;
13319;SDS011;59599;47.608;12.190;2023-11-21T18:59:44;5.93;;;5.10;;
13319;SDS011;59599;47.608;12.190;2023-11-21T19:02:10;6.93;;;4.43;;
13319;SDS011;59599;47.608;12.190;2023-11-21T19:04:40;7.07;;;4.90;;
13319;SDS011;59599;47.608;12.190;2023-11-21T19:07:06;4.07;;;3.63;;
13319;SDS011;59599;47.608;12.190;2023-11-21T19:09:31;5.30;;;4.40;;
13319;SDS011;59599;47.608;12.190;2023-11-21T19:12:00;4.63;;;3.60;;
13319;SDS011;59599;47.608;12.190;2023-11-21T19:14:27;2.70;;;1.20;;
13319;SDS011;59599;47.608;12.190;2023-11-21T19:16:53;1.70;;;1.20;;
13319;SDS011;59599;47.608;12.190;2023-11-21T19:19:19;1.77;;;1.60;;
13319;SDS011;59599;47.608;12.190;2023-11-21T19:21:45;2.17;;;1.80;;
13319;SDS011;59599;47.608;12.190;2023-11-21T19:24:11;3.07;;;2.20;;
13319;SDS011;59599;47.608;12.190;2023-11-21T19:26:38;4.70;;;3.23;;
13319;SDS011;59599;47.608;12.190;2023-11-21T19:29:04;9.93;;;7.00;;
13319;SDS011;59599;47.608;12.190;2023-11-21T19:31:30;15.90;;;10.87;;
13319;SDS011;59599;47.608;12.190;2023-11-21T19:33:56;18.63;;;13.03;;
13319;SDS011;59599;47.608;12.190;2023-11-21T19:36:22;18.07;;;13.10;;
13319;SDS011;59599;47.608;12.190;2023-11-21T19:38:48;9.63;;;7.03;;
13319;SDS011;59599;47.608;12.190;2023-11-21T19:41:18;8.37;;;5.73;;
13319;SDS011;59599;47.608;12.190;2023-11-21T19:43:45;6.77;;;4.70;;
13319;SDS011;59599;47.608;12.190;2023-11-21T19:46:15;5.33;;;4.20;;
13319;SDS011;59599;47.608;12.190;2023-11-21T19:48:41;4.20;;;3.80;;
13319;SDS011;59599;47.608;12.190;2023-11-21T19:51:07;3.40;;;3.10;;
13319;SDS011;59599;47.608;12.190;2023-11-21T19:53:33;3.70;;;3.30;;